Time;durP1;ratioP1;P1;durP2;ratioP2;P2;SDS_P1;SDS_P2;PMS_P1;PMS_P2;Temp;Humidity;BMP_temperature;BMP_pressure;BME280_temperature;BME280_humidity;BME280_pressure;Samples;Min_cycle;Max_cycle;Signal;HPM_P1;HPM_P2
2022/12/03 00:00:23;;;;;;;45.60;27.23;;;;;;;1.49;85.95;96299.91;1760772;81;21042;-76
2022/12/03 00:02:51;;;;;;;46.17;27.60;;;;;;;1.49;86.33;96305.12;1760635;81;20988;-76
2022/12/03 00:05:18;;;;;;;51.47;28.53;;;;;;;1.60;86.82;96305.83;1760370;81;20980;-76
2022/12/03 00:07:45;;;;;;;46.50;27.07;;;;;;;1.66;86.68;96302.08;1760670;81;21015;-76
2022/12/03 00:10:12;;;;;;;42.90;23.23;;;;;;;1.75;86.83;96309.27;1760852;81;21011;-76
2022/12/03 00:12:38;;;;;;;41.70;24.30;;;;;;;1.78;86.36;96316.72;1760816;81;21627;-75
2022/12/03 00:15:08;;;;;;;37.77;24.13;;;;;;;1.78;86.11;96319.33;1760738;81;21020;-75
2022/12/03 00:17:34;;;;;;;40.13;23.70;;;;;;;1.76;85.98;96317.09;1760712;81;21000;-75
2022/12/03 00:20:01;;;;;;;44.53;24.73;;;;;;;1.74;86.08;96322.70;1760552;81;20984;-75
2022/12/03 00:22:28;;;;;;;41.63;25.00;;;;;;;1.69;85.83;96319.09;1760780;81;20991;-75
2022/12/03 00:24:55;;;;;;;37.80;24.50;;;;;;;1.73;86.25;96321.80;1760847;81;20991;-75
2022/12/03 00:27:21;;;;;;;39.27;24.03;;;;;;;1.73;85.87;96327.00;1760582;81;20968;-75
2022/12/03 00:29:48;;;;;;;42.10;24.47;;;;;;;1.65;85.70;96332.42;1760638;81;21004;-76
2022/12/03 00:32:15;;;;;;;39.50;23.80;;;;;;;1.66;85.98;96333.30;1760619;81;21034;-75
2022/12/03 00:34:41;;;;;;;47.63;26.40;;;;;;;1.65;85.97;96328.52;1760290;81;20984;-75
2022/12/03 00:37:08;;;;;;;41.10;23.67;;;;;;;1.70;86.54;96328.23;1760770;81;21007;-76
2022/12/03 00:39:35;;;;;;;41.73;22.80;;;;;;;1.75;86.23;96330.95;1760631;81;21012;-75
2022/12/03 00:42:02;;;;;;;30.80;18.97;;;;;;;1.71;85.84;96331.31;1760696;81;21051;-76
2022/12/03 00:44:28;;;;;;;26.60;17.03;;;;;;;1.68;85.71;96331.20;1760729;81;21062;-76
2022/12/03 00:46:55;;;;;;;28.43;18.53;;;;;;;1.68;85.93;96336.41;1760781;81;20987;-76
2022/12/03 00:49:21;;;;;;;36.53;22.03;;;;;;;1.74;86.60;96340.92;1760541;81;21493;-75
2022/12/03 00:51:48;;;;;;;40.63;23.77;;;;;;;1.86;86.96;96342.52;1760553;81;21453;-75
2022/12/03 00:54:15;;;;;;;42.33;24.60;;;;;;;1.85;86.42;96343.37;1760412;81;21024;-76
2022/12/03 00:56:41;;;;;;;34.80;20.30;;;;;;;1.84;86.67;96338.11;1760662;81;20976;-75
2022/12/03 00:59:07;;;;;;;38.50;23.93;;;;;;;1.94;86.82;96338.43;1760732;81;21042;-76
2022/12/03 01:01:34;;;;;;;52.57;29.20;;;;;;;1.96;86.64;96341.05;1760262;81;20988;-76
2022/12/03 01:04:01;;;;;;;44.00;27.53;;;;;;;2.10;87.35;96336.22;1760702;81;21003;-75
2022/12/03 01:06:27;;;;;;;49.73;28.83;;;;;;;2.12;86.34;96337.16;1760673;81;20995;-76
2022/12/03 01:08:54;;;;;;;46.13;27.43;;;;;;;2.01;85.59;96334.25;1760604;81;21094;-75
2022/12/03 01:11:36;;;;;;;29.90;19.67;;;;;;;1.88;85.27;96334.34;1760736;81;20960;-75
2022/12/03 01:14:05;;;;;;;25.23;15.30;;;;;;;1.85;85.81;96330.36;1760735;81;21075;-76
2022/12/03 01:16:33;;;;;;;21.27;14.17;;;;;;;1.79;85.60;96339.71;1760615;81;21011;-75
2022/12/03 01:19:00;;;;;;;20.37;14.07;;;;;;;1.71;85.67;96340.41;1760704;81;21565;-75
2022/12/03 01:21:27;;;;;;;17.13;10.90;;;;;;;1.66;86.07;96338.11;1760647;81;21039;-76
2022/12/03 01:23:54;;;;;;;26.97;16.83;;;;;;;1.61;85.76;96340.97;1760529;81;21505;-75
2022/12/03 01:26:20;;;;;;;25.00;15.63;;;;;;;1.56;86.20;96346.89;1760728;81;21481;-75
2022/12/03 01:28:47;;;;;;;21.17;13.47;;;;;;;1.51;85.98;96351.56;1760568;81;21039;-75
2022/12/03 01:34:00;;;;;;;26.97;17.90;;;;;;;1.56;86.78;96349.48;1760718;81;21027;-76
2022/12/03 01:36:26;;;;;;;34.00;20.30;;;;;;;1.58;86.73;96351.30;1760498;81;20973;-75
2022/12/03 01:38:53;;;;;;;33.43;20.40;;;;;;;1.61;86.91;96353.09;1760595;81;21015;-76
2022/12/03 01:41:22;;;;;;;34.43;20.17;;;;;;;1.64;87.01;96354.52;1760705;81;21011;-76
2022/12/03 01:43:51;;;;;;;32.57;19.03;;;;;;;1.64;86.95;96346.28;1760406;81;21035;-75
2022/12/03 01:46:23;;;;;;;35.23;20.80;;;;;;;1.68;86.93;96352.44;1760642;81;20987;-76
2022/12/03 01:48:53;;;;;;;24.40;15.67;;;;;;;1.63;86.34;96341.02;1760631;81;21482;-76
2022/12/03 01:51:19;;;;;;;28.33;16.40;;;;;;;1.67;87.01;96343.76;1760459;81;21003;-75
2022/12/03 01:53:47;;;;;;;29.60;17.20;;;;;;;1.69;86.82;96340.78;1759418;81;21493;-76
2022/12/03 01:56:16;;;;;;;28.73;17.50;;;;;;;1.81;87.51;96336.73;1757817;81;21008;-76
2022/12/03 01:58:45;;;;;;;30.60;18.13;;;;;;;1.85;86.91;96333.39;1757404;82;21067;-76
2022/12/03 02:01:15;;;;;;;31.53;18.87;;;;;;;1.84;86.31;96332.52;1757739;82;20988;-75
2022/12/03 02:03:43;;;;;;;32.27;18.43;;;;;;;1.72;85.51;96331.76;1757457;81;21070;-76
2022/12/03 02:06:17;;;;;;;31.07;18.23;;;;;;;1.77;86.72;96332.31;1757397;82;21042;-76
2022/12/03 02:08:44;;;;;;;34.23;20.07;;;;;;;1.73;85.99;96332.63;1757328;82;21501;-75
2022/12/03 02:11:22;;;;;;;30.07;19.50;;;;;;;1.70;86.10;96332.55;1757615;82;21019;-76
2022/12/03 02:13:53;;;;;;;29.97;20.00;;;;;;;1.67;86.08;96331.17;1757837;82;21023;-75
2022/12/03 02:16:21;;;;;;;26.90;17.80;;;;;;;1.71;86.58;96335.60;1757649;81;21028;-76
2022/12/03 02:18:48;;;;;;;27.83;17.07;;;;;;;1.80;86.57;96338.89;1757429;82;20988;-76
2022/12/03 02:21:49;;;;;;;27.27;16.83;;;;;;;1.72;85.83;96342.59;1757600;81;21529;-76
2022/12/03 02:24:47;;;;;;;21.30;15.00;;;;;;;1.77;86.36;96342.72;1755359;82;20984;-75
2022/12/03 02:27:13;;;;;;;26.37;16.03;;;;;;;1.68;85.87;96336.41;1757674;82;21012;-75
2022/12/03 02:29:40;;;;;;;28.70;18.30;;;;;;;1.70;86.41;96331.25;1757602;82;21035;-75
2022/12/03 02:32:07;;;;;;;39.70;23.20;;;;;;;1.75;86.78;96343.97;1757714;82;21007;-75
2022/12/03 02:34:40;;;;;;;39.43;23.73;;;;;;;1.77;86.54;96334.48;1757685;82;21474;-75
2022/12/03 02:37:16;;;;;;;;;;;;;;;1.77;86.49;96340.99;1760189;81;21508;-75
2022/12/03 02:39:50;;;;;;;35.77;22.87;;;;;;;1.70;86.13;96342.53;1757441;82;20592;-76
2022/12/03 02:42:34;;;;;;;25.23;14.23;;;;;;;1.65;85.95;96337.63;1757415;82;21091;-75
2022/12/03 02:45:12;;;;;;;20.10;12.95;;;;;;;1.65;86.10;96332.42;1757890;82;21533;-75
2022/12/03 02:47:50;;;;;;;24.70;13.87;;;;;;;1.57;85.61;96333.94;1757619;82;21047;-75
2022/12/03 02:50:21;;;;;;;22.13;13.83;;;;;;;1.59;86.17;96336.17;1757211;82;21015;-76
2022/12/03 02:52:48;;;;;;;22.67;13.70;;;;;;;1.62;86.24;96342.75;1757739;81;21023;-75
2022/12/03 02:55:17;;;;;;;23.80;15.30;;;;;;;1.58;85.92;96338.71;1760010;81;21007;-76
2022/12/03 02:57:47;;;;;;;27.00;17.13;;;;;;;1.54;86.49;96336.46;1760724;81;21497;-75
2022/12/03 03:00:16;;;;;;;32.80;19.90;;;;;;;1.54;86.77;96340.36;1760781;81;20979;-75
2022/12/03 03:02:45;;;;;;;41.77;24.83;;;;;;;1.61;87.09;96337.48;1760784;81;21091;-75
2022/12/03 03:05:14;;;;;;;53.63;28.70;;;;;;;1.67;86.88;96335.95;1760709;81;21008;-75
2022/12/03 03:07:41;;;;;;;38.23;23.73;;;;;;;1.63;86.26;96334.09;1760529;81;21023;-76
2022/12/03 03:10:12;;;;;;;40.50;23.20;;;;;;;1.57;86.41;96333.06;1760805;81;21008;-76
2022/12/03 03:12:39;;;;;;;31.40;17.73;;;;;;;1.56;86.72;96333.88;1760740;81;21014;-76
2022/12/03 03:15:10;;;;;;;28.13;16.37;;;;;;;1.59;87.08;96342.67;1760492;81;21036;-76
2022/12/03 03:17:39;;;;;;;19.27;13.13;;;;;;;1.64;87.10;96329.38;1760726;81;21020;-75
2022/12/03 03:20:08;;;;;;;19.10;12.23;;;;;;;1.56;86.21;96332.16;1760722;81;21046;-76
2022/12/03 03:22:39;;;;;;;19.20;12.50;;;;;;;1.48;86.55;96333.24;1760491;81;21023;-75
2022/12/03 03:25:14;;;;;;;21.33;13.03;;;;;;;1.53;87.13;96336.41;1760814;81;21561;-75
2022/12/03 03:27:41;;;;;;;21.33;12.57;;;;;;;1.53;87.06;96333.80;1760791;81;21553;-76
2022/12/03 03:30:10;;;;;;;18.07;12.07;;;;;;;1.54;87.05;96327.75;1760803;81;21063;-75
2022/12/03 03:32:38;;;;;;;17.87;12.33;;;;;;;1.46;86.15;96335.34;1760806;81;21004;-75
2022/12/03 03:35:07;;;;;;;16.73;11.03;;;;;;;1.33;86.08;96331.51;1760828;81;20999;-75
2022/12/03 03:37:34;;;;;;;18.40;11.50;;;;;;;1.27;86.26;96325.72;1760787;81;21063;-75
2022/12/03 03:40:01;;;;;;;17.80;11.57;;;;;;;1.28;86.74;96331.38;1760798;81;21485;-75
2022/12/03 03:42:29;;;;;;;19.50;11.77;;;;;;;1.14;85.70;96335.73;1760915;81;21640;-75
2022/12/03 03:44:55;;;;;;;19.93;12.87;;;;;;;1.05;86.04;96332.00;1760767;81;20988;-75
2022/12/03 03:47:22;;;;;;;18.97;12.30;;;;;;;1.05;86.73;96335.90;1760760;81;21510;-75
2022/12/03 03:49:49;;;;;;;20.03;13.20;;;;;;;1.00;86.11;96334.87;1760797;81;21671;-76
2022/12/03 03:52:18;;;;;;;21.73;13.10;;;;;;;0.90;85.63;96345.83;1760379;81;21090;-75
2022/12/03 03:54:45;;;;;;;18.47;11.50;;;;;;;0.87;86.46;96339.25;1760589;81;21027;-75
2022/12/03 03:57:12;;;;;;;20.50;13.17;;;;;;;0.90;86.83;96343.66;1760600;81;21042;-76
2022/12/03 03:59:38;;;;;;;18.67;12.20;;;;;;;0.93;87.29;96342.45;1760794;81;21474;-76
2022/12/03 04:02:05;;;;;;;17.23;11.07;;;;;;;0.94;87.16;96342.93;1760662;81;21051;-75
2022/12/03 04:04:35;;;;;;;25.57;13.63;;;;;;;0.83;86.48;96341.28;1760826;81;21000;-75
2022/12/03 04:07:02;;;;;;;22.37;12.30;;;;;;;0.76;86.64;96345.42;1760751;81;21008;-75
2022/12/03 04:09:28;;;;;;;18.13;11.27;;;;;;;0.73;86.71;96345.33;1760861;81;21023;-75
2022/12/03 04:14:42;;;;;;;16.93;11.37;;;;;;;0.55;85.75;96353.39;1760801;81;21023;-75
2022/12/03 04:17:08;;;;;;;22.53;13.13;;;;;;;0.48;86.06;96360.94;1760854;81;21012;-75
2022/12/03 04:19:35;;;;;;;20.73;12.17;;;;;;;0.41;86.16;96352.97;1760608;81;21520;-75
2022/12/03 04:24:47;;;;;;;19.53;11.50;;;;;;;0.25;85.55;96355.88;1760565;81;20987;-75
2022/12/03 04:29:58;;;;;;;20.53;11.90;;;;;;;0.25;86.81;96359.77;1760722;81;21480;-75
2022/12/03 04:37:55;;;;;;;23.43;12.07;;;;;;;0.23;87.05;96361.45;1760686;81;20976;-75
2022/12/03 04:43:06;;;;;;;18.83;11.73;;;;;;;0.23;86.83;96358.86;1760776;81;21172;-75
2022/12/03 04:45:33;;;;;;;20.43;11.97;;;;;;;0.24;86.87;96361.91;1760670;81;21000;-75
2022/12/03 04:48:00;;;;;;;20.03;11.27;;;;;;;0.17;86.08;96362.52;1760577;81;21085;-75
2022/12/03 04:50:26;;;;;;;17.67;11.50;;;;;;;0.17;86.68;96363.41;1760674;81;21007;-75
2022/12/03 04:52:53;;;;;;;17.90;11.10;;;;;;;0.16;86.14;96365.97;1760544;81;20988;-75
2022/12/03 04:55:19;;;;;;;19.60;11.63;;;;;;;-0.02;85.47;96373.59;1760667;81;21035;-75
2022/12/03 04:57:46;;;;;;;16.77;9.00;;;;;;;-0.05;86.10;96372.19;1760739;81;21485;-75
2022/12/03 05:00:14;;;;;;;15.97;9.67;;;;;;;-0.16;85.49;96372.21;1760686;81;21087;-75
2022/12/03 05:02:41;;;;;;;17.33;11.27;;;;;;;-0.27;85.81;96372.27;1760631;81;21011;-75
2022/12/03 05:05:09;;;;;;;16.73;10.43;;;;;;;-0.26;86.34;96372.72;1760741;81;21474;-75
2022/12/03 05:07:36;;;;;;;16.90;9.90;;;;;;;-0.24;86.45;96369.77;1760099;81;20988;-75
2022/12/03 05:10:05;;;;;;;19.37;10.40;;;;;;;-0.20;86.80;96366.47;1760730;81;21023;-75
2022/12/03 05:12:32;;;;;;;16.53;10.23;;;;;;;-0.18;86.72;96366.50;1760707;81;21020;-75
2022/12/03 05:14:59;;;;;;;16.97;10.40;;;;;;;-0.16;86.74;96370.91;1760762;81;21498;-75
2022/12/03 05:17:25;;;;;;;18.30;10.37;;;;;;;-0.18;86.21;96367.38;1760605;81;21119;-75
2022/12/03 05:22:37;;;;;;;16.37;9.77;;;;;;;-0.18;86.59;96372.98;1760559;81;21508;-75
2022/12/03 05:25:05;;;;;;;17.17;10.03;;;;;;;-0.17;86.40;96378.24;1760629;81;20983;-75
2022/12/03 05:27:32;;;;;;;18.30;10.17;;;;;;;-0.11;86.93;96374.97;1760816;81;21007;-75
2022/12/03 05:29:59;;;;;;;14.50;8.73;;;;;;;-0.12;86.27;96372.80;1760393;81;21039;-75
2022/12/03 05:32:25;;;;;;;18.93;10.73;;;;;;;-0.10;86.68;96378.02;1760375;81;21091;-75
2022/12/03 05:34:52;;;;;;;19.00;10.50;;;;;;;-0.04;86.99;96373.94;1760655;81;20999;-75
2022/12/03 05:37:18;;;;;;;13.87;9.17;;;;;;;0.01;86.72;96373.23;1760643;81;21003;-75
2022/12/03 05:39:45;;;;;;;14.33;8.70;;;;;;;0.06;86.93;96375.56;1760596;81;21522;-75
2022/12/03 05:44:57;;;;;;;16.63;8.57;;;;;;;0.02;86.69;96384.06;1760746;81;20987;-75
2022/12/03 05:47:23;;;;;;;17.50;9.43;;;;;;;-0.06;85.74;96385.97;1760587;81;21089;-75
2022/12/03 05:49:50;;;;;;;16.10;9.33;;;;;;;-0.14;85.77;96387.42;1760421;81;21154;-75
2022/12/03 05:52:17;;;;;;;16.57;9.53;;;;;;;-0.18;85.82;96384.23;1760514;81;21031;-75
2022/12/03 05:54:44;;;;;;;16.30;9.70;;;;;;;-0.15;86.38;96386.05;1759956;81;21537;-75
2022/12/03 05:57:10;;;;;;;16.77;10.40;;;;;;;-0.15;86.03;96386.05;1757460;82;21553;-75
2022/12/03 05:59:37;;;;;;;22.70;10.43;;;;;;;-0.19;85.51;96390.69;1757621;82;21030;-76
2022/12/03 06:02:04;;;;;;;13.80;8.47;;;;;;;-0.31;85.38;96389.41;1757632;81;21063;-75
2022/12/03 06:04:30;;;;;;;15.20;8.97;;;;;;;-0.33;86.01;96387.20;1757648;81;20991;-75
2022/12/03 06:06:57;;;;;;;14.63;9.00;;;;;;;-0.30;86.18;96391.61;1757517;82;20998;-75
2022/12/03 06:09:24;;;;;;;13.40;8.70;;;;;;;-0.29;86.28;96394.23;1757681;82;21032;-75
2022/12/03 06:11:52;;;;;;;12.47;7.70;;;;;;;-0.24;86.08;96397.00;1757479;82;21032;-75
2022/12/03 06:14:20;;;;;;;15.57;8.57;;;;;;;-0.32;85.67;96394.55;1757737;82;21047;-75
2022/12/03 06:16:47;;;;;;;13.83;8.90;;;;;;;-0.33;86.02;96397.95;1757363;82;21573;-75
2022/12/03 06:19:14;;;;;;;12.10;7.80;;;;;;;-0.31;86.00;96398.48;1757487;82;21099;-75
2022/12/03 06:21:40;;;;;;;15.93;8.97;;;;;;;-0.37;85.61;96399.98;1757545;82;21011;-75
2022/12/03 06:24:07;;;;;;;19.83;10.47;;;;;;;-0.37;86.23;96399.98;1757629;82;21072;-75
2022/12/03 06:26:34;;;;;;;18.03;9.63;;;;;;;-0.32;86.57;96394.55;1757611;81;21015;-75
2022/12/03 06:29:01;;;;;;;12.47;7.20;;;;;;;-0.19;86.87;96401.06;1757643;82;21508;-75
2022/12/03 06:31:27;;;;;;;11.23;6.97;;;;;;;-0.11;86.86;96403.09;1757472;82;20999;-75
2022/12/03 06:33:54;;;;;;;11.30;6.90;;;;;;;-0.01;86.98;96401.28;1757849;82;21500;-75
2022/12/03 06:36:21;;;;;;;13.10;6.87;;;;;;;-0.01;86.34;96402.58;1757717;82;21080;-75
2022/12/03 06:38:48;;;;;;;12.17;6.43;;;;;;;-0.02;86.49;96399.95;1757472;81;21434;-75
2022/12/03 06:41:14;;;;;;;12.87;6.93;;;;;;;-0.07;86.11;96403.67;1757586;82;21128;-75
2022/12/03 06:43:40;;;;;;;10.90;6.77;;;;;;;-0.10;86.30;96406.16;1757637;82;20992;-75
2022/12/03 06:46:07;;;;;;;10.63;6.53;;;;;;;-0.09;86.36;96410.52;1757732;82;21530;-75
2022/12/03 06:48:33;;;;;;;11.93;8.53;;;;;;;-0.11;86.50;96410.87;1757610;82;21047;-75
2022/12/03 06:51:00;;;;;;;16.83;10.13;;;;;;;-0.09;86.75;96414.83;1757678;82;21078;-75
2022/12/03 06:53:26;;;;;;;151.13;62.17;;;;;;;-0.07;87.15;96413.17;1757406;82;21469;-75
2022/12/03 06:55:53;;;;;;;197.80;77.17;;;;;;;0.01;87.44;96414.74;1757470;81;21060;-75
2022/12/03 06:58:20;;;;;;;90.70;40.60;;;;;;;0.11;87.50;96415.11;1757694;82;21074;-75
2022/12/03 07:00:46;;;;;;;11.57;6.60;;;;;;;0.16;86.81;96408.78;1757617;82;21007;-75
2022/12/03 07:03:13;;;;;;;12.60;7.93;;;;;;;0.16;86.66;96410.95;1757680;81;21006;-75
2022/12/03 07:05:41;;;;;;;13.50;8.70;;;;;;;0.17;86.69;96410.11;1757794;81;21039;-75
2022/12/03 07:08:07;;;;;;;12.50;7.33;;;;;;;0.32;87.50;96408.46;1757320;81;21071;-75
2022/12/03 07:10:34;;;;;;;59.87;25.67;;;;;;;0.36;86.86;96405.15;1757567;81;21059;-75
2022/12/03 07:13:01;;;;;;;25.30;11.87;;;;;;;0.37;86.88;96408.20;1757418;81;21516;-75
2022/12/03 07:15:28;;;;;;;22.90;10.80;;;;;;;0.37;86.72;96415.98;1757518;82;21055;-75
2022/12/03 07:17:55;;;;;;;30.30;15.83;;;;;;;0.40;86.84;96414.81;1757686;82;21529;-75
2022/12/03 07:20:22;;;;;;;60.93;29.67;;;;;;;0.47;86.82;96415.01;1757529;82;21485;-75
2022/12/03 07:22:48;;;;;;;67.33;35.03;;;;;;;0.49;86.86;96415.53;1757438;81;21004;-75
2022/12/03 07:25:15;;;;;;;33.80;19.50;;;;;;;0.52;86.78;96416.92;1757717;81;21000;-75
2022/12/03 07:27:42;;;;;;;15.47;9.60;;;;;;;0.60;86.98;96416.75;1757698;82;21067;-75
2022/12/03 07:30:13;;;;;;;18.10;11.63;;;;;;;0.69;87.05;96415.31;1757713;82;20959;-75
2022/12/03 07:32:39;;;;;;;54.00;31.17;;;;;;;0.72;87.01;96411.08;1757700;82;21042;-75
2022/12/03 07:35:08;;;;;;;74.90;42.77;;;;;;;0.78;87.10;96410.00;1757502;81;21007;-75
2022/12/03 07:37:34;;;;;;;80.27;44.00;;;;;;;0.88;87.33;96408.97;1757486;82;21024;-75
2022/12/03 07:40:02;;;;;;;75.00;42.17;;;;;;;0.97;87.29;96400.18;1757697;81;21509;-75
2022/12/03 07:42:29;;;;;;;68.60;37.73;;;;;;;1.07;87.26;96393.13;1757643;82;21497;-75
2022/12/03 07:44:55;;;;;;;66.43;37.40;;;;;;;1.18;87.36;96399.95;1757764;81;21030;-75
2022/12/03 07:47:22;;;;;;;77.63;42.83;;;;;;;1.27;87.11;96397.22;1758106;82;21019;-75
2022/12/03 07:49:49;;;;;;;87.27;51.50;;;;;;;1.30;86.81;96399.02;1757665;82;21018;-75
2022/12/03 07:52:15;;;;;;;75.37;46.00;;;;;;;1.33;86.49;96394.33;1757751;82;21008;-75
2022/12/03 07:54:43;;;;;;;78.63;49.70;;;;;;;1.36;86.57;96399.62;1757715;81;21016;-76
2022/12/03 07:57:09;;;;;;;66.40;39.27;;;;;;;1.44;87.10;96398.15;1760473;81;21082;-76
2022/12/03 07:59:36;;;;;;;73.13;44.50;;;;;;;1.51;86.95;96396.16;1760664;81;21046;-75
2022/12/03 08:02:03;;;;;;;51.37;32.17;;;;;;;1.60;86.92;96393.84;1760631;81;20996;-75
2022/12/03 08:04:29;;;;;;;49.57;29.73;;;;;;;1.71;87.03;96396.34;1760675;81;21034;-75
2022/12/03 08:06:56;;;;;;;46.80;29.20;;;;;;;1.81;86.96;96394.86;1760713;81;21478;-75
2022/12/03 08:09:23;;;;;;;48.77;31.30;;;;;;;1.87;86.84;96392.45;1760466;81;21071;-75
2022/12/03 08:11:49;;;;;;;41.20;25.90;;;;;;;1.99;87.23;96383.20;1760646;81;21027;-75
2022/12/03 08:14:18;;;;;;;46.03;28.50;;;;;;;2.08;86.81;96385.63;1760775;81;20980;-75
2022/12/03 08:16:46;;;;;;;30.33;19.97;;;;;;;2.17;86.72;96387.62;1760466;81;21524;-75
2022/12/03 08:19:16;;;;;;;34.37;22.13;;;;;;;2.27;86.72;96396.52;1761060;81;21465;-75
2022/12/03 08:21:43;;;;;;;33.67;22.30;;;;;;;2.34;86.49;96393.24;1760760;81;21004;-75
2022/12/03 08:24:15;;;;;;;36.37;25.27;;;;;;;2.46;86.17;96393.98;1760471;81;21074;-75
2022/12/03 08:26:43;;;;;;;50.80;31.73;;;;;;;2.43;85.36;96393.48;1760775;81;21015;-75
2022/12/03 08:29:14;;;;;;;43.83;28.33;;;;;;;2.43;85.60;96392.19;1760619;81;21038;-75
2022/12/03 08:31:43;;;;;;;57.80;36.03;;;;;;;2.42;85.26;96390.44;1760620;81;20992;-75
2022/12/03 08:34:23;;;;;;;64.33;39.93;;;;;;;2.42;85.39;96395.65;1760217;81;21335;-75
2022/12/03 08:37:01;;;;;;;57.30;35.13;;;;;;;2.52;86.06;96392.44;1760464;81;21035;-75
2022/12/03 08:39:36;;;;;;;61.37;37.43;;;;;;;2.67;86.42;96385.42;1759553;81;21031;-75
2022/12/03 08:42:56;;;;;;;61.70;36.80;;;;;;;2.81;86.40;96389.22;1735614;81;21011;-75
2022/12/03 08:45:38;;;;;;;45.97;26.17;;;;;;;3.00;86.58;96384.47;1746842;81;21526;-75
2022/12/03 08:48:31;;;;;;;38.33;22.67;;;;;;;3.18;86.52;96382.70;1730556;81;21099;-75
2022/12/03 08:51:06;;;;;;;28.07;19.13;;;;;;;3.32;86.00;96388.21;1760734;81;21047;-75
2022/12/03 08:53:52;;;;;;;39.70;25.73;;;;;;;3.50;85.36;96385.12;1760476;81;21596;-75
2022/12/03 08:56:23;;;;;;;42.90;29.60;;;;;;;3.61;85.47;96383.63;1758508;81;20996;-75
2022/12/03 08:58:57;;;;;;;41.50;25.47;;;;;;;3.75;85.28;96383.47;1760613;81;21039;-75
2022/12/03 09:01:35;;;;;;;40.20;28.70;;;;;;;3.84;85.03;96377.14;1760690;81;21480;-75
2022/12/03 09:04:22;;;;;;;36.73;25.47;;;;;;;3.93;84.66;96378.16;1760518;81;21060;-75
2022/12/03 09:06:50;;;;;;;34.43;23.13;;;;;;;4.01;84.44;96378.79;1760888;81;21026;-75
2022/12/03 09:09:17;;;;;;;33.90;22.13;;;;;;;4.14;84.70;96375.11;1760482;81;21059;-75
2022/12/03 09:11:45;;;;;;;66.17;45.53;;;;;;;4.23;84.04;96371.34;1760718;81;21052;-75
2022/12/03 09:14:13;;;;;;;45.43;27.77;;;;;;;4.24;82.70;96370.08;1760570;81;21058;-75
2022/12/03 09:16:40;;;;;;;39.30;26.47;;;;;;;4.28;82.62;96367.08;1760755;81;21039;-75
2022/12/03 09:19:06;;;;;;;53.03;37.50;;;;;;;4.40;83.18;96366.43;1760605;81;21011;-75
2022/12/03 09:21:33;;;;;;;26.17;16.60;;;;;;;4.50;83.12;96364.43;1760664;81;21003;-76
2022/12/03 09:24:00;;;;;;;24.17;15.60;;;;;;;4.60;82.83;96361.12;1760374;81;21572;-75
2022/12/03 09:26:28;;;;;;;22.37;14.67;;;;;;;4.73;83.05;96362.20;1760532;81;21031;-75
2022/12/03 09:28:55;;;;;;;26.37;16.27;;;;;;;4.83;82.77;96358.88;1760662;81;21154;-75
2022/12/03 09:31:21;;;;;;;27.37;17.83;;;;;;;4.93;82.06;96363.39;1760622;81;20975;-76
2022/12/03 09:33:48;;;;;;;24.57;15.87;;;;;;;5.05;82.44;96361.41;1760626;81;21026;-75
2022/12/03 09:36:14;;;;;;;24.97;16.07;;;;;;;5.18;82.32;96355.48;1760577;81;21011;-75
2022/12/03 09:38:41;;;;;;;38.43;24.20;;;;;;;5.31;82.51;96363.08;1760562;81;21068;-76
2022/12/03 09:41:08;;;;;;;37.63;24.73;;;;;;;5.47;81.66;96352.81;1760504;81;21505;-75
2022/12/03 09:43:35;;;;;;;56.47;39.57;;;;;;;5.69;81.09;96352.67;1760592;81;21066;-76
2022/12/03 09:46:02;;;;;;;25.30;17.87;;;;;;;5.96;80.08;96351.73;1760720;81;21007;-76
2022/12/03 09:48:29;;;;;;;25.53;16.77;;;;;;;6.24;79.24;96352.03;1760537;81;21023;-75
2022/12/03 09:50:56;;;;;;;23.80;15.60;;;;;;;6.63;78.92;96337.13;1760668;81;21458;-75
2022/12/03 09:53:25;;;;;;;22.73;14.77;;;;;;;7.00;78.05;96329.96;1760502;81;21047;-75
2022/12/03 09:55:52;;;;;;;20.62;13.55;;;;;;;7.28;77.65;96335.86;1759892;81;21067;-75
2022/12/03 09:58:21;;;;;;;19.60;13.72;;;;;;;7.62;77.24;96337.78;1757645;81;21096;-75
2022/12/03 10:00:52;;;;;;;19.82;13.90;;;;;;;7.96;76.47;96337.47;1757682;81;21034;-75
2022/12/03 10:03:23;;;;;;;18.73;13.53;;;;;;;8.30;75.54;96329.25;1757645;82;21007;-75
2022/12/03 10:05:50;;;;;;;17.92;13.00;;;;;;;8.73;76.17;96337.23;1757675;81;21023;-75
2022/12/03 10:08:20;;;;;;;18.60;13.55;;;;;;;9.14;76.29;96325.80;1755106;81;21027;-75
2022/12/03 10:10:52;;;;;;;16.77;12.20;;;;;;;9.36;69.10;96320.06;1755258;82;21007;-75
2022/12/03 10:13:29;;;;;;;17.35;13.50;;;;;;;9.52;70.46;96321.80;1757254;81;21091;-76
2022/12/03 10:15:59;;;;;;;17.73;13.55;;;;;;;9.82;70.56;96324.31;1757153;82;21062;-76
2022/12/03 10:18:30;;;;;;;20.15;14.00;;;;;;;10.11;70.15;96318.92;1757635;82;20996;-75
2022/12/03 10:20:57;;;;;;;31.05;23.62;;;;;;;10.35;68.83;96321.88;1757208;82;21028;-75
2022/12/03 10:23:28;;;;;;;21.07;15.03;;;;;;;10.31;63.18;96315.76;1757409;82;21023;-75
2022/12/03 10:26:02;;;;;;;21.87;15.50;;;;;;;10.36;63.26;96316.61;1757480;82;21088;-75
2022/12/03 10:28:36;;;;;;;17.35;13.10;;;;;;;10.40;61.62;96314.81;1757569;82;21020;-76
2022/12/03 10:31:07;;;;;;;18.65;13.38;;;;;;;10.24;62.50;96314.45;1757561;82;21088;-75
2022/12/03 10:33:43;;;;;;;21.65;15.50;;;;;;;10.30;60.19;96311.34;1757217;82;21055;-76
2022/12/03 10:36:18;;;;;;;23.40;17.92;;;;;;;10.44;60.42;96308.64;1757639;82;21538;-75
2022/12/03 10:38:46;;;;;;;22.25;16.15;;;;;;;10.60;61.51;96301.03;1757402;81;21505;-75
2022/12/03 10:41:26;;;;;;;22.55;17.07;;;;;;;10.74;59.16;96304.03;1757614;81;21070;-75
2022/12/03 10:43:53;;;;;;;16.48;13.22;;;;;;;10.82;60.93;96300.43;1757533;82;20972;-76
2022/12/03 10:46:22;;;;;;;18.98;13.05;;;;;;;10.89;57.98;96305.23;1757566;82;21039;-75
2022/12/03 10:49:16;;;;;;;16.17;12.85;;;;;;;11.12;58.88;96309.43;1757621;81;20984;-76
2022/12/03 10:51:45;;;;;;;20.43;14.93;;;;;;;11.33;58.98;96304.37;1757632;82;21011;-76
2022/12/03 10:54:24;;;;;;;20.12;14.47;;;;;;;11.56;57.89;96297.52;1757001;82;21461;-75
2022/12/03 10:56:51;;;;;;;15.53;12.40;;;;;;;11.85;57.11;96303.80;1757639;81;21086;-75
2022/12/03 10:59:22;;;;;;;16.30;12.68;;;;;;;12.08;57.03;96293.83;1757546;81;21585;-75
2022/12/03 11:01:49;;;;;;;15.98;12.82;;;;;;;12.38;57.78;96290.79;1757404;82;20996;-75
2022/12/03 11:04:24;;;;;;;18.57;13.30;;;;;;;12.63;54.92;96292.17;1757707;82;21035;-75
2022/12/03 11:06:51;;;;;;;17.92;12.78;;;;;;;12.90;56.02;96289.53;1757523;82;21568;-75
2022/12/03 11:09:28;;;;;;;15.68;12.78;;;;;;;13.15;54.75;96286.45;1757568;82;21019;-75
2022/12/03 11:11:55;;;;;;;15.18;12.18;;;;;;;13.18;53.68;96290.39;1757534;82;20992;-75
2022/12/03 11:15:03;;;;;;;16.67;12.85;;;;;;;13.16;52.27;96285.56;1757686;81;20980;-76
2022/12/03 11:17:52;;;;;;;23.52;16.90;;;;;;;13.28;52.93;96284.48;1736026;82;21565;-75
2022/12/03 11:20:33;;;;;;;18.00;14.13;;;;;;;13.73;54.72;96284.05;1757769;82;21004;-75
2022/12/03 11:23:00;;;;;;;18.80;13.88;;;;;;;13.82;52.47;96274.59;1753643;82;21035;-75
2022/12/03 11:25:36;;;;;;;15.95;13.15;;;;;;;13.72;50.81;96282.32;1757624;81;21027;-75
2022/12/03 11:28:17;;;;;;;16.48;13.35;;;;;;;13.81;51.36;96283.94;1756134;82;21063;-75
2022/12/03 11:31:00;;;;;;;14.83;12.35;;;;;;;13.65;51.11;96278.04;1757913;82;21007;-75
2022/12/03 11:33:38;;;;;;;17.57;14.03;;;;;;;13.66;51.62;96285.11;1757835;81;21076;-75
2022/12/03 11:36:09;;;;;;;16.80;12.53;;;;;;;13.70;52.36;96274.84;1756736;82;21088;-75
2022/12/03 11:38:44;;;;;;;16.45;13.43;;;;;;;13.47;50.28;96279.27;1757814;82;21446;-73
2022/12/03 11:41:32;;;;;;;16.82;14.03;;;;;;;13.29;51.71;96275.19;1757791;81;21091;-74
2022/12/03 11:44:28;;;;;;;16.65;13.22;;;;;;;13.07;51.84;96279.09;1757809;82;20999;-73
2022/12/03 11:46:56;;;;;;;17.95;13.50;;;;;;;12.83;52.09;96283.91;1754646;82;21477;-73
2022/12/03 11:49:36;;;;;;;14.87;13.08;;;;;;;12.71;54.02;96280.13;1757735;82;21059;-73
2022/12/03 11:52:20;;;;;;;16.12;13.38;;;;;;;12.74;53.49;96283.59;1757746;82;21050;-73
2022/12/03 11:54:52;;;;;;;19.17;13.72;;;;;;;12.54;53.44;96282.58;1757616;82;20976;-73
2022/12/03 11:57:38;;;;;;;16.10;12.58;;;;;;;12.56;54.14;96279.46;1759327;81;21028;-74
2022/12/03 12:00:16;;;;;;;23.95;17.00;;;;;;;12.59;52.59;96273.25;1761310;81;21448;-73